sensor_id;sensor_type;location;lat;lon;timestamp;P1;durP1;ratioP1;P2;durP2;ratioP2
1000;SDS011;489;47.806;12.858;2023-08-24T00:01:15;9.53;;;8.70;;
1000;SDS011;489;47.806;12.858;2023-08-24T00:03:17;9.53;;;8.63;;
1000;SDS011;489;47.806;12.858;2023-08-24T00:05:21;9.67;;;8.67;;
1000;SDS011;489;47.806;12.858;2023-08-24T00:07:24;8.63;;;7.90;;
1000;SDS011;489;47.806;12.858;2023-08-24T00:09:27;8.00;;;7.30;;
1000;SDS011;489;47.806;12.858;2023-08-24T00:11:29;9.50;;;8.63;;
1000;SDS011;489;47.806;12.858;2023-08-24T00:13:31;8.50;;;7.73;;
1000;SDS011;489;47.806;12.858;2023-08-24T00:15:33;7.80;;;7.20;;
1000;SDS011;489;47.806;12.858;2023-08-24T00:17:36;8.27;;;7.67;;
1000;SDS011;489;47.806;12.858;2023-08-24T00:19:38;7.37;;;6.70;;
1000;SDS011;489;47.806;12.858;2023-08-24T00:21:40;8.17;;;7.47;;
1000;SDS011;489;47.806;12.858;2023-08-24T00:23:43;8.23;;;7.63;;
1000;SDS011;489;47.806;12.858;2023-08-24T00:25:44;8.63;;;8.00;;
1000;SDS011;489;47.806;12.858;2023-08-24T00:27:46;8.60;;;7.80;;
1000;SDS011;489;47.806;12.858;2023-08-24T00:29:48;8.10;;;7.30;;
1000;SDS011;489;47.806;12.858;2023-08-24T00:31:50;8.10;;;7.40;;
1000;SDS011;489;47.806;12.858;2023-08-24T00:33:52;7.90;;;7.20;;
1000;SDS011;489;47.806;12.858;2023-08-24T00:35:58;9.10;;;8.20;;
1000;SDS011;489;47.806;12.858;2023-08-24T00:38:01;8.70;;;7.80;;
1000;SDS011;489;47.806;12.858;2023-08-24T00:40:05;8.40;;;7.60;;
1000;SDS011;489;47.806;12.858;2023-08-24T00:42:09;8.30;;;7.60;;
1000;SDS011;489;47.806;12.858;2023-08-24T00:44:15;8.83;;;8.03;;
1000;SDS011;489;47.806;12.858;2023-08-24T00:46:17;8.50;;;7.80;;
1000;SDS011;489;47.806;12.858;2023-08-24T00:48:21;8.37;;;7.63;;
1000;SDS011;489;47.806;12.858;2023-08-24T00:50:26;8.50;;;7.80;;
1000;SDS011;489;47.806;12.858;2023-08-24T00:52:30;9.03;;;8.27;;
1000;SDS011;489;47.806;12.858;2023-08-24T00:54:31;9.33;;;8.10;;
1000;SDS011;489;47.806;12.858;2023-08-24T00:56:35;9.20;;;8.50;;
1000;SDS011;489;47.806;12.858;2023-08-24T00:58:37;8.77;;;7.70;;
1000;SDS011;489;47.806;12.858;2023-08-24T01:00:39;9.33;;;8.43;;
1000;SDS011;489;47.806;12.858;2023-08-24T01:02:42;8.40;;;7.70;;
1000;SDS011;489;47.806;12.858;2023-08-24T01:04:43;8.60;;;7.80;;
1000;SDS011;489;47.806;12.858;2023-08-24T01:06:45;8.40;;;7.70;;
1000;SDS011;489;47.806;12.858;2023-08-24T01:08:47;8.50;;;7.80;;
1000;SDS011;489;47.806;12.858;2023-08-24T01:10:48;9.07;;;8.33;;
1000;SDS011;489;47.806;12.858;2023-08-24T01:13:02;9.93;;;8.30;;
1000;SDS011;489;47.806;12.858;2023-08-24T01:15:09;8.43;;;7.73;;
1000;SDS011;489;47.806;12.858;2023-08-24T01:17:15;8.70;;;7.90;;
1000;SDS011;489;47.806;12.858;2023-08-24T01:19:24;8.30;;;7.60;;
1000;SDS011;489;47.806;12.858;2023-08-24T01:21:31;9.60;;;8.63;;
1000;SDS011;489;47.806;12.858;2023-08-24T01:23:36;9.00;;;8.20;;
1000;SDS011;489;47.806;12.858;2023-08-24T01:25:42;9.07;;;8.23;;
1000;SDS011;489;47.806;12.858;2023-08-24T01:27:50;9.90;;;9.00;;
1000;SDS011;489;47.806;12.858;2023-08-24T01:29:53;9.50;;;8.67;;
1000;SDS011;489;47.806;12.858;2023-08-24T01:31:59;10.00;;;9.20;;
1000;SDS011;489;47.806;12.858;2023-08-24T01:34:03;9.47;;;8.57;;
1000;SDS011;489;47.806;12.858;2023-08-24T01:36:04;9.33;;;8.50;;
1000;SDS011;489;47.806;12.858;2023-08-24T01:38:07;12.30;;;8.80;;
1000;SDS011;489;47.806;12.858;2023-08-24T01:40:13;8.63;;;7.93;;
1000;SDS011;489;47.806;12.858;2023-08-24T01:42:19;9.90;;;9.10;;
1000;SDS011;489;47.806;12.858;2023-08-24T01:44:23;9.93;;;8.93;;
1000;SDS011;489;47.806;12.858;2023-08-24T01:46:27;8.23;;;7.63;;
1000;SDS011;489;47.806;12.858;2023-08-24T01:48:32;9.53;;;8.83;;
1000;SDS011;489;47.806;12.858;2023-08-24T01:50:34;8.77;;;7.97;;
1000;SDS011;489;47.806;12.858;2023-08-24T01:52:39;8.10;;;7.50;;
1000;SDS011;489;47.806;12.858;2023-08-24T01:54:41;10.00;;;8.23;;
1000;SDS011;489;47.806;12.858;2023-08-24T01:56:44;9.20;;;7.50;;
1000;SDS011;489;47.806;12.858;2023-08-24T01:58:46;8.80;;;8.10;;
1000;SDS011;489;47.806;12.858;2023-08-24T02:00:50;8.47;;;7.60;;
1000;SDS011;489;47.806;12.858;2023-08-24T02:02:52;9.43;;;8.63;;
1000;SDS011;489;47.806;12.858;2023-08-24T02:04:54;9.10;;;8.30;;
1000;SDS011;489;47.806;12.858;2023-08-24T02:06:57;8.30;;;7.50;;
1000;SDS011;489;47.806;12.858;2023-08-24T02:08:59;8.17;;;7.53;;
1000;SDS011;489;47.806;12.858;2023-08-24T02:11:02;11.13;;;8.20;;
1000;SDS011;489;47.806;12.858;2023-08-24T02:13:06;10.30;;;8.27;;
1000;SDS011;489;47.806;12.858;2023-08-24T02:15:08;8.43;;;7.63;;
1000;SDS011;489;47.806;12.858;2023-08-24T02:17:13;9.20;;;8.40;;
1000;SDS011;489;47.806;12.858;2023-08-24T02:19:15;9.23;;;8.17;;
1000;SDS011;489;47.806;12.858;2023-08-24T02:21:17;7.70;;;7.10;;
1000;SDS011;489;47.806;12.858;2023-08-24T02:23:19;8.57;;;7.73;;
1000;SDS011;489;47.806;12.858;2023-08-24T02:25:20;8.80;;;8.07;;
1000;SDS011;489;47.806;12.858;2023-08-24T02:27:22;9.90;;;7.87;;
1000;SDS011;489;47.806;12.858;2023-08-24T02:29:25;10.27;;;9.33;;
1000;SDS011;489;47.806;12.858;2023-08-24T02:31:28;8.87;;;8.07;;
1000;SDS011;489;47.806;12.858;2023-08-24T02:33:32;9.10;;;8.20;;
1000;SDS011;489;47.806;12.858;2023-08-24T02:35:33;9.03;;;8.23;;
1000;SDS011;489;47.806;12.858;2023-08-24T02:37:35;9.40;;;8.70;;
1000;SDS011;489;47.806;12.858;2023-08-24T02:39:37;8.20;;;7.50;;
1000;SDS011;489;47.806;12.858;2023-08-24T02:41:39;8.57;;;7.87;;
1000;SDS011;489;47.806;12.858;2023-08-24T02:43:43;9.00;;;8.20;;
1000;SDS011;489;47.806;12.858;2023-08-24T02:45:44;8.67;;;7.97;;
1000;SDS011;489;47.806;12.858;2023-08-24T02:47:46;8.80;;;8.00;;
1000;SDS011;489;47.806;12.858;2023-08-24T02:49:49;8.33;;;7.73;;
1000;SDS011;489;47.806;12.858;2023-08-24T02:51:55;9.40;;;8.50;;
1000;SDS011;489;47.806;12.858;2023-08-24T02:53:57;9.20;;;8.40;;
1000;SDS011;489;47.806;12.858;2023-08-24T02:55:58;8.83;;;7.93;;
1000;SDS011;489;47.806;12.858;2023-08-24T02:58:02;8.87;;;8.17;;
1000;SDS011;489;47.806;12.858;2023-08-24T03:00:04;9.40;;;8.50;;
1000;SDS011;489;47.806;12.858;2023-08-24T03:02:08;8.30;;;7.67;;
1000;SDS011;489;47.806;12.858;2023-08-24T03:04:10;9.47;;;8.50;;
1000;SDS011;489;47.806;12.858;2023-08-24T03:06:13;9.93;;;9.13;;
1000;SDS011;489;47.806;12.858;2023-08-24T03:08:15;8.70;;;8.00;;
1000;SDS011;489;47.806;12.858;2023-08-24T03:10:17;9.57;;;8.73;;
1000;SDS011;489;47.806;12.858;2023-08-24T03:12:20;8.73;;;7.90;;
1000;SDS011;489;47.806;12.858;2023-08-24T03:14:22;8.10;;;7.47;;
1000;SDS011;489;47.806;12.858;2023-08-24T03:16:24;10.00;;;9.10;;
1000;SDS011;489;47.806;12.858;2023-08-24T03:18:26;9.17;;;8.40;;
1000;SDS011;489;47.806;12.858;2023-08-24T03:20:28;9.53;;;8.80;;
1000;SDS011;489;47.806;12.858;2023-08-24T03:22:31;8.80;;;8.10;;
1000;SDS011;489;47.806;12.858;2023-08-24T03:24:33;8.83;;;8.23;;
1000;SDS011;489;47.806;12.858;2023-08-24T03:26:35;9.30;;;8.40;;
1000;SDS011;489;47.806;12.858;2023-08-24T03:28:37;9.10;;;8.30;;
1000;SDS011;489;47.806;12.858;2023-08-24T03:30:44;9.33;;;8.63;;
1000;SDS011;489;47.806;12.858;2023-08-24T03:32:47;8.80;;;7.83;;
1000;SDS011;489;47.806;12.858;2023-08-24T03:34:49;8.67;;;7.97;;
1000;SDS011;489;47.806;12.858;2023-08-24T03:36:51;8.60;;;7.90;;
1000;SDS011;489;47.806;12.858;2023-08-24T03:38:54;9.53;;;8.60;;
1000;SDS011;489;47.806;12.858;2023-08-24T03:40:59;9.87;;;9.07;;
1000;SDS011;489;47.806;12.858;2023-08-24T03:43:03;9.17;;;8.27;;
1000;SDS011;489;47.806;12.858;2023-08-24T03:45:05;10.43;;;8.80;;
1000;SDS011;489;47.806;12.858;2023-08-24T03:47:08;9.40;;;8.70;;
1000;SDS011;489;47.806;12.858;2023-08-24T03:49:11;8.97;;;8.20;;
1000;SDS011;489;47.806;12.858;2023-08-24T03:51:13;9.47;;;8.70;;
1000;SDS011;489;47.806;12.858;2023-08-24T03:53:15;8.50;;;7.80;;
1000;SDS011;489;47.806;12.858;2023-08-24T03:55:17;8.70;;;8.03;;
1000;SDS011;489;47.806;12.858;2023-08-24T03:57:19;9.73;;;8.93;;
1000;SDS011;489;47.806;12.858;2023-08-24T03:59:22;8.37;;;7.67;;
1000;SDS011;489;47.806;12.858;2023-08-24T04:01:24;8.80;;;8.10;;
1000;SDS011;489;47.806;12.858;2023-08-24T04:03:26;8.30;;;7.60;;
1000;SDS011;489;47.806;12.858;2023-08-24T04:05:28;7.73;;;7.10;;
1000;SDS011;489;47.806;12.858;2023-08-24T04:07:30;9.70;;;8.03;;
1000;SDS011;489;47.806;12.858;2023-08-24T04:09:34;8.80;;;8.10;;
1000;SDS011;489;47.806;12.858;2023-08-24T04:11:37;8.23;;;7.63;;
1000;SDS011;489;47.806;12.858;2023-08-24T04:13:39;8.73;;;8.03;;
1000;SDS011;489;47.806;12.858;2023-08-24T04:15:41;9.17;;;7.87;;
1000;SDS011;489;47.806;12.858;2023-08-24T04:17:42;10.07;;;9.20;;
1000;SDS011;489;47.806;12.858;2023-08-24T04:19:45;8.80;;;8.10;;
1000;SDS011;489;47.806;12.858;2023-08-24T04:21:47;9.33;;;8.53;;
1000;SDS011;489;47.806;12.858;2023-08-24T04:23:49;8.80;;;8.10;;
1000;SDS011;489;47.806;12.858;2023-08-24T04:25:51;9.33;;;8.53;;
1000;SDS011;489;47.806;12.858;2023-08-24T04:27:55;8.53;;;7.73;;
1000;SDS011;489;47.806;12.858;2023-08-24T04:29:57;8.63;;;8.03;;
1000;SDS011;489;47.806;12.858;2023-08-24T04:31:59;9.70;;;8.90;;
1000;SDS011;489;47.806;12.858;2023-08-24T04:34:01;9.63;;;8.77;;
1000;SDS011;489;47.806;12.858;2023-08-24T04:36:04;9.93;;;9.23;;
1000;SDS011;489;47.806;12.858;2023-08-24T04:38:06;9.30;;;8.50;;
1000;SDS011;489;47.806;12.858;2023-08-24T04:40:09;9.03;;;8.23;;
1000;SDS011;489;47.806;12.858;2023-08-24T04:42:12;8.77;;;7.97;;
1000;SDS011;489;47.806;12.858;2023-08-24T04:44:14;9.13;;;8.37;;
1000;SDS011;489;47.806;12.858;2023-08-24T04:46:16;8.93;;;8.27;;
1000;SDS011;489;47.806;12.858;2023-08-24T04:48:18;10.90;;;8.47;;
1000;SDS011;489;47.806;12.858;2023-08-24T04:50:20;9.30;;;8.27;;
1000;SDS011;489;47.806;12.858;2023-08-24T04:52:22;8.90;;;8.20;;
1000;SDS011;489;47.806;12.858;2023-08-24T04:54:23;8.57;;;7.87;;
1000;SDS011;489;47.806;12.858;2023-08-24T04:56:25;8.60;;;7.57;;
1000;SDS011;489;47.806;12.858;2023-08-24T04:58:27;8.53;;;7.83;;
1000;SDS011;489;47.806;12.858;2023-08-24T05:00:30;9.03;;;8.20;;
1000;SDS011;489;47.806;12.858;2023-08-24T05:02:33;9.37;;;8.57;;
1000;SDS011;489;47.806;12.858;2023-08-24T05:04:35;10.37;;;9.50;;
1000;SDS011;489;47.806;12.858;2023-08-24T05:06:37;9.20;;;8.30;;
1000;SDS011;489;47.806;12.858;2023-08-24T05:08:39;10.67;;;9.80;;
1000;SDS011;489;47.806;12.858;2023-08-24T05:10:39;9.60;;;8.90;;
1000;SDS011;489;47.806;12.858;2023-08-24T05:12:42;10.03;;;9.13;;
1000;SDS011;489;47.806;12.858;2023-08-24T05:14:43;9.20;;;8.47;;
1000;SDS011;489;47.806;12.858;2023-08-24T05:16:46;9.53;;;8.70;;
1000;SDS011;489;47.806;12.858;2023-08-24T05:18:48;8.80;;;8.00;;
1000;SDS011;489;47.806;12.858;2023-08-24T05:20:50;9.97;;;9.07;;
1000;SDS011;489;47.806;12.858;2023-08-24T05:22:52;10.10;;;9.10;;
1000;SDS011;489;47.806;12.858;2023-08-24T05:24:55;9.50;;;8.70;;
1000;SDS011;489;47.806;12.858;2023-08-24T05:26:57;9.30;;;8.60;;
1000;SDS011;489;47.806;12.858;2023-08-24T05:28:59;10.17;;;9.27;;
1000;SDS011;489;47.806;12.858;2023-08-24T05:31:01;9.23;;;8.43;;
1000;SDS011;489;47.806;12.858;2023-08-24T05:33:03;9.53;;;8.80;;
1000;SDS011;489;47.806;12.858;2023-08-24T05:35:06;8.13;;;7.43;;
1000;SDS011;489;47.806;12.858;2023-08-24T05:37:09;11.13;;;10.00;;
1000;SDS011;489;47.806;12.858;2023-08-24T05:39:11;10.23;;;9.33;;
1000;SDS011;489;47.806;12.858;2023-08-24T05:41:13;9.77;;;8.87;;
1000;SDS011;489;47.806;12.858;2023-08-24T05:43:15;9.80;;;8.90;;
1000;SDS011;489;47.806;12.858;2023-08-24T05:45:16;10.77;;;9.90;;
1000;SDS011;489;47.806;12.858;2023-08-24T05:47:18;10.30;;;9.40;;
1000;SDS011;489;47.806;12.858;2023-08-24T05:49:21;11.23;;;10.33;;
1000;SDS011;489;47.806;12.858;2023-08-24T05:51:23;9.97;;;9.07;;
1000;SDS011;489;47.806;12.858;2023-08-24T05:53:25;10.63;;;9.83;;
1000;SDS011;489;47.806;12.858;2023-08-24T05:55:27;9.87;;;9.07;;
1000;SDS011;489;47.806;12.858;2023-08-24T05:57:29;10.13;;;9.33;;
1000;SDS011;489;47.806;12.858;2023-08-24T05:59:31;11.00;;;10.03;;
1000;SDS011;489;47.806;12.858;2023-08-24T06:01:34;11.27;;;10.27;;
1000;SDS011;489;47.806;12.858;2023-08-24T06:03:39;11.17;;;10.17;;
1000;SDS011;489;47.806;12.858;2023-08-24T06:05:42;10.30;;;9.50;;
1000;SDS011;489;47.806;12.858;2023-08-24T06:07:44;10.27;;;9.33;;
1000;SDS011;489;47.806;12.858;2023-08-24T06:09:47;11.00;;;10.00;;
1000;SDS011;489;47.806;12.858;2023-08-24T06:11:49;10.13;;;9.23;;
1000;SDS011;489;47.806;12.858;2023-08-24T06:13:51;10.67;;;9.67;;
1000;SDS011;489;47.806;12.858;2023-08-24T06:15:54;10.83;;;9.93;;
1000;SDS011;489;47.806;12.858;2023-08-24T06:17:56;10.60;;;9.70;;
1000;SDS011;489;47.806;12.858;2023-08-24T06:20:00;11.03;;;9.93;;
1000;SDS011;489;47.806;12.858;2023-08-24T06:22:04;11.23;;;10.23;;
1000;SDS011;489;47.806;12.858;2023-08-24T06:24:06;10.90;;;10.00;;
1000;SDS011;489;47.806;12.858;2023-08-24T06:26:08;11.63;;;10.67;;
1000;SDS011;489;47.806;12.858;2023-08-24T06:28:10;11.23;;;10.23;;
1000;SDS011;489;47.806;12.858;2023-08-24T06:30:12;11.00;;;10.00;;
1000;SDS011;489;47.806;12.858;2023-08-24T06:32:14;9.90;;;9.10;;
1000;SDS011;489;47.806;12.858;2023-08-24T06:34:16;11.40;;;10.50;;
1000;SDS011;489;47.806;12.858;2023-08-24T06:36:17;10.40;;;9.40;;
1000;SDS011;489;47.806;12.858;2023-08-24T06:38:21;10.70;;;9.90;;
1000;SDS011;489;47.806;12.858;2023-08-24T06:40:23;11.30;;;10.40;;
1000;SDS011;489;47.806;12.858;2023-08-24T06:42:25;10.90;;;10.00;;
1000;SDS011;489;47.806;12.858;2023-08-24T06:44:26;10.73;;;9.73;;
1000;SDS011;489;47.806;12.858;2023-08-24T06:46:28;11.30;;;10.30;;
1000;SDS011;489;47.806;12.858;2023-08-24T06:48:30;10.73;;;9.80;;
1000;SDS011;489;47.806;12.858;2023-08-24T06:50:32;12.77;;;11.55;;
1000;SDS011;489;47.806;12.858;2023-08-24T06:52:34;11.68;;;10.68;;
1000;SDS011;489;47.806;12.858;2023-08-24T06:54:38;10.20;;;9.35;;
1000;SDS011;489;47.806;12.858;2023-08-24T06:56:39;10.87;;;10.07;;
1000;SDS011;489;47.806;12.858;2023-08-24T06:58:42;11.60;;;10.40;;
1000;SDS011;489;47.806;12.858;2023-08-24T07:00:43;11.50;;;10.60;;
1000;SDS011;489;47.806;12.858;2023-08-24T07:02:46;9.98;;;9.07;;
1000;SDS011;489;47.806;12.858;2023-08-24T07:04:48;11.02;;;9.95;;
1000;SDS011;489;47.806;12.858;2023-08-24T07:06:49;10.63;;;9.73;;
1000;SDS011;489;47.806;12.858;2023-08-24T07:08:51;10.45;;;9.45;;
1000;SDS011;489;47.806;12.858;2023-08-24T07:10:55;11.18;;;10.00;;
1000;SDS011;489;47.806;12.858;2023-08-24T07:12:58;10.27;;;9.48;;
1000;SDS011;489;47.806;12.858;2023-08-24T07:15:18;9.48;;;8.68;;
1000;SDS011;489;47.806;12.858;2023-08-24T07:17:20;10.15;;;9.35;;
1000;SDS011;489;47.806;12.858;2023-08-24T07:19:22;11.30;;;10.30;;
1000;SDS011;489;47.806;12.858;2023-08-24T07:21:25;10.68;;;9.77;;
1000;SDS011;489;47.806;12.858;2023-08-24T07:23:26;11.45;;;10.55;;
1000;SDS011;489;47.806;12.858;2023-08-24T07:25:28;11.23;;;10.15;;
1000;SDS011;489;47.806;12.858;2023-08-24T07:27:32;9.75;;;8.95;;
1000;SDS011;489;47.806;12.858;2023-08-24T07:29:34;10.50;;;9.65;;
1000;SDS011;489;47.806;12.858;2023-08-24T07:31:35;9.90;;;9.10;;
1000;SDS011;489;47.806;12.858;2023-08-24T07:33:37;9.85;;;9.02;;
1000;SDS011;489;47.806;12.858;2023-08-24T07:35:39;10.30;;;9.50;;
1000;SDS011;489;47.806;12.858;2023-08-24T07:37:41;9.48;;;8.77;;
1000;SDS011;489;47.806;12.858;2023-08-24T07:39:43;10.38;;;9.43;;
1000;SDS011;489;47.806;12.858;2023-08-24T07:41:45;9.95;;;9.15;;
1000;SDS011;489;47.806;12.858;2023-08-24T07:43:49;10.35;;;9.55;;
1000;SDS011;489;47.806;12.858;2023-08-24T07:45:50;10.52;;;9.63;;
1000;SDS011;489;47.806;12.858;2023-08-24T07:47:53;11.10;;;10.00;;
1000;SDS011;489;47.806;12.858;2023-08-24T07:49:55;10.95;;;10.10;;
1000;SDS011;489;47.806;12.858;2023-08-24T07:51:57;16.10;;;10.50;;
1000;SDS011;489;47.806;12.858;2023-08-24T07:53:59;12.25;;;9.98;;
1000;SDS011;489;47.806;12.858;2023-08-24T07:56:01;20.23;;;11.63;;
1000;SDS011;489;47.806;12.858;2023-08-24T07:58:04;12.73;;;10.50;;
1000;SDS011;489;47.806;12.858;2023-08-24T08:00:07;11.95;;;10.77;;
1000;SDS011;489;47.806;12.858;2023-08-24T08:02:13;16.50;;;11.23;;
1000;SDS011;489;47.806;12.858;2023-08-24T08:04:15;11.65;;;10.48;;
1000;SDS011;489;47.806;12.858;2023-08-24T08:06:17;13.63;;;10.95;;
1000;SDS011;489;47.806;12.858;2023-08-24T08:08:19;14.73;;;11.30;;
1000;SDS011;489;47.806;12.858;2023-08-24T08:10:21;12.23;;;10.32;;
1000;SDS011;489;47.806;12.858;2023-08-24T08:12:23;10.93;;;9.85;;
1000;SDS011;489;47.806;12.858;2023-08-24T08:14:25;10.20;;;9.30;;
1000;SDS011;489;47.806;12.858;2023-08-24T08:16:29;9.40;;;8.70;;
1000;SDS011;489;47.806;12.858;2023-08-24T08:18:32;10.90;;;9.80;;
1000;SDS011;489;47.806;12.858;2023-08-24T08:20:34;10.57;;;9.40;;
1000;SDS011;489;47.806;12.858;2023-08-24T08:22:36;13.00;;;11.35;;
1000;SDS011;489;47.806;12.858;2023-08-24T08:24:38;11.43;;;10.38;;
1000;SDS011;489;47.806;12.858;2023-08-24T08:26:40;10.00;;;8.93;;
1000;SDS011;489;47.806;12.858;2023-08-24T08:28:43;9.40;;;8.60;;
1000;SDS011;489;47.806;12.858;2023-08-24T08:30:45;9.48;;;8.63;;
1000;SDS011;489;47.806;12.858;2023-08-24T08:32:50;10.98;;;9.93;;
1000;SDS011;489;47.806;12.858;2023-08-24T08:34:53;12.13;;;10.93;;
1000;SDS011;489;47.806;12.858;2023-08-24T08:36:55;10.50;;;9.60;;
1000;SDS011;489;47.806;12.858;2023-08-24T08:38:57;11.55;;;10.65;;
1000;SDS011;489;47.806;12.858;2023-08-24T08:41:02;10.98;;;9.88;;
1000;SDS011;489;47.806;12.858;2023-08-24T08:43:04;11.98;;;10.75;;
1000;SDS011;489;47.806;12.858;2023-08-24T08:45:08;12.95;;;10.05;;
1000;SDS011;489;47.806;12.858;2023-08-24T08:47:11;11.13;;;10.02;;
1000;SDS011;489;47.806;12.858;2023-08-24T08:49:14;13.40;;;10.30;;
1000;SDS011;489;47.806;12.858;2023-08-24T08:51:17;15.43;;;10.10;;
1000;SDS011;489;47.806;12.858;2023-08-24T08:53:21;15.60;;;12.23;;
1000;SDS011;489;47.806;12.858;2023-08-24T08:55:23;16.73;;;10.65;;
1000;SDS011;489;47.806;12.858;2023-08-24T08:57:27;23.58;;;11.80;;
1000;SDS011;489;47.806;12.858;2023-08-24T08:59:29;30.33;;;11.95;;
1000;SDS011;489;47.806;12.858;2023-08-24T09:01:31;18.77;;;10.75;;
1000;SDS011;489;47.806;12.858;2023-08-24T09:03:34;15.05;;;11.55;;
1000;SDS011;489;47.806;12.858;2023-08-24T09:05:37;12.77;;;11.52;;
1000;SDS011;489;47.806;12.858;2023-08-24T09:07:40;11.63;;;10.43;;
1000;SDS011;489;47.806;12.858;2023-08-24T09:09:42;11.27;;;10.20;;
1000;SDS011;489;47.806;12.858;2023-08-24T09:11:45;12.50;;;11.25;;
1000;SDS011;489;47.806;12.858;2023-08-24T09:13:48;11.75;;;10.82;;
1000;SDS011;489;47.806;12.858;2023-08-24T09:15:51;13.05;;;11.73;;
1000;SDS011;489;47.806;12.858;2023-08-24T09:17:54;11.73;;;10.75;;
1000;SDS011;489;47.806;12.858;2023-08-24T09:19:57;11.40;;;10.45;;
1000;SDS011;489;47.806;12.858;2023-08-24T09:22:01;11.93;;;10.93;;
1000;SDS011;489;47.806;12.858;2023-08-24T09:24:04;12.15;;;10.98;;
1000;SDS011;489;47.806;12.858;2023-08-24T09:26:06;12.93;;;11.85;;
1000;SDS011;489;47.806;12.858;2023-08-24T09:28:07;12.68;;;11.57;;
1000;SDS011;489;47.806;12.858;2023-08-24T09:30:10;10.98;;;9.93;;
1000;SDS011;489;47.806;12.858;2023-08-24T09:32:13;11.77;;;10.65;;
1000;SDS011;489;47.806;12.858;2023-08-24T09:34:15;11.98;;;10.88;;
1000;SDS011;489;47.806;12.858;2023-08-24T09:36:20;9.07;;;8.38;;
1000;SDS011;489;47.806;12.858;2023-08-24T09:38:24;13.13;;;10.60;;
1000;SDS011;489;47.806;12.858;2023-08-24T09:40:27;10.85;;;9.88;;
1000;SDS011;489;47.806;12.858;2023-08-24T09:42:29;12.02;;;10.82;;
1000;SDS011;489;47.806;12.858;2023-08-24T09:44:31;12.65;;;11.23;;
1000;SDS011;489;47.806;12.858;2023-08-24T09:46:34;8.85;;;8.23;;
1000;SDS011;489;47.806;12.858;2023-08-24T09:48:37;11.68;;;10.65;;
1000;SDS011;489;47.806;12.858;2023-08-24T09:50:39;12.13;;;10.88;;
1000;SDS011;489;47.806;12.858;2023-08-24T09:52:41;12.30;;;9.60;;
1000;SDS011;489;47.806;12.858;2023-08-24T09:55:07;11.02;;;9.93;;
1000;SDS011;489;47.806;12.858;2023-08-24T09:57:10;10.95;;;9.75;;
1000;SDS011;489;47.806;12.858;2023-08-24T09:59:13;9.20;;;8.50;;
1000;SDS011;489;47.806;12.858;2023-08-24T10:01:18;10.93;;;9.82;;
1000;SDS011;489;47.806;12.858;2023-08-24T10:03:21;10.43;;;9.18;;
1000;SDS011;489;47.806;12.858;2023-08-24T10:05:26;9.90;;;9.02;;
1000;SDS011;489;47.806;12.858;2023-08-24T10:07:29;9.75;;;8.75;;
1000;SDS011;489;47.806;12.858;2023-08-24T10:09:31;10.13;;;9.20;;
1000;SDS011;489;47.806;12.858;2023-08-24T10:11:43;8.88;;;8.18;;
1000;SDS011;489;47.806;12.858;2023-08-24T10:13:52;9.55;;;8.75;;
1000;SDS011;489;47.806;12.858;2023-08-24T10:15:57;10.07;;;9.10;;
1000;SDS011;489;47.806;12.858;2023-08-24T10:18:01;10.18;;;9.07;;
1000;SDS011;489;47.806;12.858;2023-08-24T10:20:03;9.93;;;9.02;;
1000;SDS011;489;47.806;12.858;2023-08-24T10:22:09;9.13;;;8.32;;
1000;SDS011;489;47.806;12.858;2023-08-24T10:24:11;9.65;;;8.85;;
1000;SDS011;489;47.806;12.858;2023-08-24T10:26:14;9.50;;;8.57;;
1000;SDS011;489;47.806;12.858;2023-08-24T10:28:18;9.40;;;8.57;;
1000;SDS011;489;47.806;12.858;2023-08-24T10:30:21;8.98;;;7.93;;
1000;SDS011;489;47.806;12.858;2023-08-24T10:32:24;8.50;;;7.80;;
1000;SDS011;489;47.806;12.858;2023-08-24T10:34:27;9.55;;;8.68;;
1000;SDS011;489;47.806;12.858;2023-08-24T10:36:29;7.78;;;7.18;;
1000;SDS011;489;47.806;12.858;2023-08-24T10:38:31;9.75;;;8.77;;
1000;SDS011;489;47.806;12.858;2023-08-24T10:40:37;9.55;;;8.65;;
1000;SDS011;489;47.806;12.858;2023-08-24T10:42:43;10.02;;;8.85;;
1000;SDS011;489;47.806;12.858;2023-08-24T10:44:46;8.65;;;7.95;;
1000;SDS011;489;47.806;12.858;2023-08-24T10:49:10;9.77;;;8.80;;
1000;SDS011;489;47.806;12.858;2023-08-24T10:51:19;10.38;;;9.40;;
1000;SDS011;489;47.806;12.858;2023-08-24T10:55:38;10.73;;;9.25;;
1000;SDS011;489;47.806;12.858;2023-08-24T10:57:59;9.65;;;8.85;;
1000;SDS011;489;47.806;12.858;2023-08-24T11:00:07;9.52;;;8.57;;
1000;SDS011;489;47.806;12.858;2023-08-24T11:02:16;10.13;;;9.25;;
1000;SDS011;489;47.806;12.858;2023-08-24T11:04:20;9.82;;;9.00;;
1000;SDS011;489;47.806;12.858;2023-08-24T11:06:22;10.40;;;9.43;;
1000;SDS011;489;47.806;12.858;2023-08-24T11:08:43;8.63;;;7.70;;
1000;SDS011;489;47.806;12.858;2023-08-24T11:10:45;9.82;;;8.85;;
1000;SDS011;489;47.806;12.858;2023-08-24T11:15:09;8.93;;;8.23;;
1000;SDS011;489;47.806;12.858;2023-08-24T11:17:17;9.65;;;8.75;;
1000;SDS011;489;47.806;12.858;2023-08-24T11:19:20;10.65;;;9.63;;
1000;SDS011;489;47.806;12.858;2023-08-24T11:21:22;9.57;;;8.68;;
1000;SDS011;489;47.806;12.858;2023-08-24T11:23:24;13.60;;;8.55;;
1000;SDS011;489;47.806;12.858;2023-08-24T11:25:27;9.27;;;8.55;;
1000;SDS011;489;47.806;12.858;2023-08-24T11:27:27;8.88;;;8.13;;
1000;SDS011;489;47.806;12.858;2023-08-24T11:29:30;8.10;;;7.40;;
1000;SDS011;489;47.806;12.858;2023-08-24T11:31:34;9.25;;;8.38;;
1000;SDS011;489;47.806;12.858;2023-08-24T11:33:36;8.90;;;8.13;;
1000;SDS011;489;47.806;12.858;2023-08-24T11:35:38;8.27;;;7.60;;
1000;SDS011;489;47.806;12.858;2023-08-24T11:37:41;9.35;;;8.65;;
1000;SDS011;489;47.806;12.858;2023-08-24T11:39:45;8.82;;;8.23;;
1000;SDS011;489;47.806;12.858;2023-08-24T11:41:59;9.20;;;8.40;;
1000;SDS011;489;47.806;12.858;2023-08-24T11:44:02;8.85;;;8.05;;
1000;SDS011;489;47.806;12.858;2023-08-24T11:46:05;7.90;;;7.40;;
1000;SDS011;489;47.806;12.858;2023-08-24T11:48:08;8.65;;;7.85;;
1000;SDS011;489;47.806;12.858;2023-08-24T11:50:11;8.32;;;7.72;;
1000;SDS011;489;47.806;12.858;2023-08-24T11:52:13;9.45;;;8.60;;
1000;SDS011;489;47.806;12.858;2023-08-24T11:54:16;9.50;;;8.60;;
1000;SDS011;489;47.806;12.858;2023-08-24T11:56:40;9.05;;;8.45;;
1000;SDS011;489;47.806;12.858;2023-08-24T11:58:43;9.93;;;9.02;;
1000;SDS011;489;47.806;12.858;2023-08-24T12:00:50;8.30;;;7.70;;
1000;SDS011;489;47.806;12.858;2023-08-24T12:02:52;32.30;;;12.65;;
1000;SDS011;489;47.806;12.858;2023-08-24T12:04:54;9.40;;;7.70;;
1000;SDS011;489;47.806;12.858;2023-08-24T12:06:57;11.20;;;7.55;;
1000;SDS011;489;47.806;12.858;2023-08-24T12:08:59;10.65;;;7.82;;
1000;SDS011;489;47.806;12.858;2023-08-24T12:11:03;11.65;;;7.82;;
1000;SDS011;489;47.806;12.858;2023-08-24T12:13:05;8.40;;;7.65;;
1000;SDS011;489;47.806;12.858;2023-08-24T12:15:08;8.98;;;8.07;;
1000;SDS011;489;47.806;12.858;2023-08-24T12:17:16;9.07;;;8.30;;
1000;SDS011;489;47.806;12.858;2023-08-24T12:19:21;8.77;;;8.00;;
1000;SDS011;489;47.806;12.858;2023-08-24T12:21:24;8.13;;;7.45;;
1000;SDS011;489;47.806;12.858;2023-08-24T12:23:27;9.55;;;8.23;;
1000;SDS011;489;47.806;12.858;2023-08-24T12:25:29;8.38;;;7.57;;
1000;SDS011;489;47.806;12.858;2023-08-24T12:27:31;9.90;;;7.75;;
1000;SDS011;489;47.806;12.858;2023-08-24T12:29:34;8.82;;;7.93;;
1000;SDS011;489;47.806;12.858;2023-08-24T12:31:36;8.18;;;7.40;;
1000;SDS011;489;47.806;12.858;2023-08-24T12:33:38;12.15;;;7.32;;
1000;SDS011;489;47.806;12.858;2023-08-24T12:35:39;7.40;;;6.72;;
1000;SDS011;489;47.806;12.858;2023-08-24T12:37:42;11.38;;;7.55;;
1000;SDS011;489;47.806;12.858;2023-08-24T12:39:44;40.13;;;10.15;;
1000;SDS011;489;47.806;12.858;2023-08-24T12:41:46;36.85;;;9.05;;
1000;SDS011;489;47.806;12.858;2023-08-24T12:43:47;12.05;;;7.40;;
1000;SDS011;489;47.806;12.858;2023-08-24T12:45:49;39.63;;;11.45;;